Woodlinville, Missouri
Current Conditions -  °F | °C
As of 2:55 PM on Sunday 21 Dec 2014 (Local Time) from KVER Reporting Station
Overcast Overcast  
Wind Chill: 38°   Ceiling: 1600
Heat Index: 44°   Visibility: 10mi
Dew Point: 40°   Wind: 14mph
Humidity: 85%   Direction: 160°SSE
Pressure: 29.93"   Gusts: 18mph
Location:  39.0019°N, 92.5027°W
Report Text: KVER 212055Z AUTO 16012G16KT 10SM BKN016 OVC020 07/05 A2993 RMK AO2 T00690045
Loading
Personal Weather Stations






























Interactive Weather Map New forecast layout! Learn more

10-Day Weather Forecast

Advertisements
Track Severe Weather on mobile